createdAt,value
2018-08-23T18:19:28.687Z,70.30
2018-08-23T18:21:57.902Z,70.30
2018-08-23T18:24:27.458Z,70.30
2018-08-23T18:26:57.941Z,70.30
2018-08-23T18:29:27.794Z,70.40
2018-08-23T18:31:57.600Z,70.50
2018-08-23T18:34:38.062Z,70.20
2018-08-23T18:37:07.942Z,70.30
2018-08-23T18:39:37.806Z,70.50
2018-08-23T18:42:07.683Z,70.60
2018-08-23T18:44:37.474Z,70.50
2018-08-23T18:47:07.061Z,70.50
2018-08-23T18:49:36.667Z,70.30
2018-08-23T18:52:06.710Z,70.40
2018-08-23T18:54:36.318Z,70.50
2018-08-23T18:57:06.477Z,70.40
2018-08-23T18:59:36.099Z,70.40
2018-08-23T19:02:06.342Z,70.30
2018-08-23T19:04:35.947Z,70.30
2018-08-23T19:07:09.722Z,70.30
2018-08-23T19:09:39.341Z,70.30
2018-08-23T19:12:09.157Z,70.20
2018-08-23T19:14:38.762Z,70.00
2018-08-23T19:17:14.138Z,70.00
2018-08-23T19:19:43.738Z,69.90
2018-08-23T19:22:13.338Z,69.80
2018-08-23T19:24:42.938Z,69.80
2018-08-23T19:27:12.534Z,69.90
2018-08-23T19:29:42.650Z,69.80
2018-08-23T19:32:12.564Z,69.90
2018-08-23T19:34:42.198Z,69.70
2018-08-23T19:37:11.934Z,69.60
2018-08-23T19:39:41.605Z,69.30
2018-08-23T19:42:11.542Z,69.30
2018-08-23T19:44:46.474Z,69.00
2018-08-23T19:47:21.626Z,68.80
2018-08-23T19:49:51.695Z,68.60
2018-08-23T19:52:21.673Z,68.60
2018-08-23T19:54:51.754Z,68.80
2018-08-23T19:57:21.550Z,69.10
2018-08-23T19:59:51.150Z,68.90
2018-08-23T20:02:20.758Z,68.50
2018-08-23T20:04:50.390Z,68.10
2018-08-23T20:07:19.978Z,68.20
2018-08-23T20:09:50.045Z,68.00
2018-08-23T20:12:19.672Z,67.80
2018-08-23T20:14:49.434Z,67.80
2018-08-23T20:17:19.311Z,67.90
2018-08-23T20:19:49.526Z,67.90
2018-08-23T20:22:20.163Z,67.70
2018-08-23T20:24:50.120Z,67.80
2018-08-23T20:27:19.861Z,67.70
2018-08-23T20:29:49.467Z,67.60
2018-08-23T20:32:19.064Z,67.40
2018-08-23T20:34:48.853Z,67.40
2018-08-23T20:37:18.454Z,67.40
2018-08-23T20:39:48.063Z,67.30
2018-08-23T20:42:17.886Z,67.20
2018-08-23T20:44:47.774Z,67.00
2018-08-23T20:47:17.588Z,67.00
2018-08-23T20:49:47.461Z,66.90
2018-08-23T20:52:17.116Z,67.10
2018-08-23T20:54:46.783Z,67.00
2018-08-23T20:57:17.211Z,67.00
2018-08-23T20:59:46.846Z,66.90
2018-08-23T21:02:16.663Z,66.80
2018-08-23T21:04:46.254Z,66.70
2018-08-23T21:07:16.486Z,66.60
2018-08-23T21:09:46.096Z,66.50
2018-08-23T21:12:15.917Z,66.50
2018-08-23T21:14:45.505Z,66.40
2018-08-23T21:17:15.370Z,66.30
2018-08-23T21:19:44.970Z,66.20
2018-08-23T21:22:14.621Z,66.20
2018-08-23T21:24:44.442Z,66.20
2018-08-23T21:27:14.296Z,66.00
2018-08-23T21:29:43.910Z,66.10
2018-08-23T21:32:14.269Z,66.10
2018-08-23T21:34:44.429Z,66.10
2018-08-23T21:37:14.078Z,66.00
2018-08-23T21:39:43.953Z,65.90
2018-08-23T21:42:13.849Z,65.90
2018-08-23T21:44:43.426Z,65.90
2018-08-23T21:47:13.311Z,65.90
2018-08-23T21:49:42.911Z,65.90
2018-08-23T21:52:12.822Z,65.80
2018-08-23T21:54:42.676Z,65.80
2018-08-23T21:57:12.474Z,65.80
2018-08-23T21:59:42.271Z,65.80
2018-08-23T22:02:18.658Z,65.70
2018-08-23T22:04:55.932Z,65.80
2018-08-23T22:07:25.931Z,65.90
2018-08-23T22:09:55.804Z,65.90
2018-08-23T22:12:26.298Z,65.90
2018-08-23T22:14:56.889Z,66.00
2018-08-23T22:17:27.021Z,65.70
2018-08-23T22:19:57.119Z,65.70
2018-08-23T22:22:26.705Z,65.80
2018-08-23T22:24:56.301Z,65.70
2018-08-23T22:27:26.022Z,65.70
2018-08-23T22:29:56.184Z,65.70
2018-08-23T22:32:25.778Z,65.60
2018-08-23T22:34:55.382Z,65.70
2018-08-23T22:37:24.974Z,65.70
2018-08-23T22:39:54.572Z,65.50
2018-08-23T22:42:24.174Z,65.60
2018-08-23T22:44:53.901Z,65.70
2018-08-23T22:47:23.527Z,65.70
2018-08-23T22:49:53.481Z,65.60
2018-08-23T22:52:23.557Z,65.60
2018-08-23T22:54:53.138Z,65.50
2018-08-23T22:57:23.117Z,65.60
2018-08-23T22:59:52.878Z,65.70
2018-08-23T23:02:40.165Z,65.60
2018-08-23T23:05:11.360Z,65.60
2018-08-23T23:07:41.117Z,65.60
2018-08-23T23:10:10.710Z,65.60
2018-08-23T23:12:40.334Z,65.50
2018-08-23T23:15:15.938Z,65.50
2018-08-23T23:17:46.002Z,65.50
2018-08-23T23:20:15.598Z,65.50
2018-08-23T23:22:45.186Z,65.50
2018-08-23T23:25:14.799Z,65.50
2018-08-23T23:27:44.386Z,65.60
2018-08-23T23:30:14.003Z,65.60
2018-08-23T23:32:43.619Z,65.60
2018-08-23T23:35:13.217Z,65.50
2018-08-23T23:37:42.812Z,65.70
2018-08-23T23:40:12.398Z,65.60
2018-08-23T23:42:41.997Z,65.70
2018-08-23T23:45:11.590Z,65.60
2018-08-23T23:47:41.182Z,65.60
2018-08-23T23:50:10.762Z,65.60
2018-08-23T23:52:40.498Z,65.60
2018-08-23T23:55:10.357Z,65.60
2018-08-23T23:57:39.953Z,65.60
